createdAt,value
2023-05-14T00:00:23.197Z,67.86
2023-05-14T00:01:25.716Z,67.66
2023-05-14T00:02:28.303Z,67.56
2023-05-14T00:03:31.314Z,67.33
2023-05-14T00:04:33.649Z,67.10
2023-05-14T00:05:36.105Z,66.81
2023-05-14T00:06:38.277Z,67.23
2023-05-14T00:07:40.472Z,67.56
2023-05-14T00:08:42.645Z,67.35
2023-05-14T00:09:44.806Z,67.01
2023-05-14T00:10:47.052Z,67.38
2023-05-14T00:11:49.203Z,67.52
2023-05-14T00:12:52.063Z,67.45
2023-05-14T00:13:54.252Z,67.26
2023-05-14T00:14:56.680Z,67.35
2023-05-14T00:15:58.856Z,66.78
2023-05-14T00:17:01.451Z,66.93
2023-05-14T00:18:03.879Z,67.10
2023-05-14T00:19:06.235Z,67.16
2023-05-14T00:20:08.959Z,67.12
2023-05-14T00:21:11.196Z,67.30
2023-05-14T00:22:13.565Z,67.13
2023-05-14T00:23:15.888Z,67.52
2023-05-14T00:24:18.252Z,67.70
2023-05-14T00:25:20.434Z,67.34
2023-05-14T00:26:22.699Z,67.48
2023-05-14T00:27:26.020Z,67.28
2023-05-14T00:28:28.210Z,67.21
2023-05-14T00:29:30.530Z,67.82
2023-05-14T00:30:32.879Z,68.24
2023-05-14T00:31:35.398Z,68.43
2023-05-14T00:32:38.481Z,68.30
2023-05-14T00:33:41.630Z,68.81
2023-05-14T00:34:43.872Z,68.92
2023-05-14T00:35:46.279Z,69.13
2023-05-14T00:36:48.471Z,69.02
2023-05-14T00:37:50.835Z,69.10
2023-05-14T00:38:53.108Z,69.17
2023-05-14T00:39:55.933Z,68.78
2023-05-14T00:40:58.317Z,68.46
2023-05-14T00:42:00.547Z,68.41
2023-05-14T00:43:03.723Z,68.58
2023-05-14T00:44:06.026Z,68.50
2023-05-14T00:45:09.108Z,68.78
2023-05-14T00:46:12.703Z,68.74
2023-05-14T00:47:14.965Z,68.84
2023-05-14T00:48:18.089Z,69.14
2023-05-14T00:49:21.173Z,69.08
2023-05-14T00:50:23.998Z,69.18
2023-05-14T00:51:26.863Z,69.70
2023-05-14T00:52:29.074Z,69.62
2023-05-14T00:53:31.564Z,69.73
2023-05-14T00:54:34.834Z,70.05
2023-05-14T00:55:38.813Z,69.42
2023-05-14T00:56:41.260Z,69.58
2023-05-14T00:57:43.851Z,69.83
2023-05-14T00:58:46.107Z,70.21
2023-05-14T00:59:48.768Z,70.57
2023-05-14T01:00:52.278Z,70.79
2023-05-14T01:01:54.612Z,70.47
2023-05-14T01:02:57.105Z,70.44
2023-05-14T01:04:00.716Z,70.01
2023-05-14T01:05:03.689Z,69.63
2023-05-14T01:06:29.459Z,69.43
2023-05-14T01:07:59.154Z,69.43
2023-05-14T01:09:28.820Z,69.61
2023-05-14T01:10:45.765Z,70.68
2023-05-14T01:12:00.143Z,70.78
2023-05-14T01:13:18.346Z,70.15
2023-05-14T01:14:22.083Z,69.92
2023-05-14T01:15:28.865Z,69.61
2023-05-14T01:16:34.350Z,69.36
2023-05-14T01:17:59.852Z,69.39
2023-05-14T01:19:05.019Z,69.04
2023-05-14T01:20:08.428Z,69.18
2023-05-14T01:21:43.017Z,69.97
2023-05-14T01:22:45.385Z,69.85
2023-05-14T01:23:47.802Z,69.85
2023-05-14T01:24:50.028Z,69.78
2023-05-14T01:25:52.407Z,69.38
2023-05-14T01:27:07.236Z,69.03
2023-05-14T01:28:18.031Z,69.41
2023-05-14T01:29:29.146Z,69.55
2023-05-14T01:30:36.765Z,69.52
2023-05-14T01:31:43.070Z,69.82
2023-05-14T01:32:51.161Z,69.32
2023-05-14T01:33:56.206Z,69.57
2023-05-14T01:35:00.747Z,68.83
2023-05-14T01:36:04.732Z,68.71
2023-05-14T01:37:08.570Z,68.59
2023-05-14T01:38:13.989Z,68.43
2023-05-14T01:39:16.753Z,68.11
2023-05-14T01:40:19.418Z,68.34
2023-05-14T01:41:23.652Z,68.37
2023-05-14T01:42:26.482Z,68.61
2023-05-14T01:43:30.131Z,68.55
2023-05-14T01:44:33.638Z,68.58
2023-05-14T01:45:36.736Z,68.61
2023-05-14T01:46:39.295Z,69.50
2023-05-14T01:47:41.713Z,70.30
2023-05-14T01:48:44.171Z,71.10
2023-05-14T01:49:46.343Z,71.47
2023-05-14T01:50:48.732Z,71.98
2023-05-14T01:51:51.397Z,71.99
2023-05-14T01:52:56.823Z,71.65
2023-05-14T01:53:59.257Z,71.26
2023-05-14T01:55:01.480Z,70.85
2023-05-14T01:56:04.113Z,70.87
2023-05-14T01:57:06.298Z,70.47
2023-05-14T01:58:08.737Z,70.52
2023-05-14T01:59:11.112Z,70.41
2023-05-14T02:00:14.201Z,70.33
2023-05-14T02:01:16.956Z,70.15
2023-05-14T02:02:19.516Z,69.93
2023-05-14T02:03:21.883Z,69.75
2023-05-14T02:04:24.201Z,69.75
2023-05-14T02:05:27.384Z,70.02
2023-05-14T02:06:29.908Z,69.75
2023-05-14T02:07:32.386Z,69.83
2023-05-14T02:08:34.754Z,69.71
2023-05-14T02:09:37.016Z,69.72
2023-05-14T02:10:39.520Z,69.48
2023-05-14T02:11:41.715Z,69.88
2023-05-14T02:12:44.142Z,69.49
2023-05-14T02:13:46.495Z,69.66
2023-05-14T02:14:48.761Z,70.25
2023-05-14T02:15:51.305Z,70.42
2023-05-14T02:16:53.561Z,70.72
2023-05-14T02:17:55.950Z,70.35
2023-05-14T02:18:58.706Z,70.35
2023-05-14T02:20:00.973Z,70.00
2023-05-14T02:21:03.158Z,70.11
2023-05-14T02:22:05.691Z,69.99
2023-05-14T02:23:08.946Z,70.05
2023-05-14T02:24:11.507Z,69.97
2023-05-14T02:25:13.700Z,69.89
2023-05-14T02:26:15.928Z,70.32
2023-05-14T02:27:18.575Z,69.69
2023-05-14T02:28:20.782Z,69.65
2023-05-14T02:29:23.508Z,69.46
2023-05-14T02:30:25.862Z,69.31
2023-05-14T02:31:28.166Z,68.96
2023-05-14T02:32:30.624Z,68.99
2023-05-14T02:33:33.587Z,68.95
2023-05-14T02:34:36.236Z,68.82
2023-05-14T02:35:38.434Z,68.50
2023-05-14T02:36:41.103Z,68.20
2023-05-14T02:37:43.447Z,67.98
2023-05-14T02:38:45.881Z,68.11
2023-05-14T02:39:49.073Z,67.87
2023-05-14T02:40:51.459Z,68.07
2023-05-14T02:41:53.836Z,67.98
2023-05-14T02:42:56.083Z,67.46
2023-05-14T02:43:58.813Z,67.01
2023-05-14T02:45:01.026Z,66.70
2023-05-14T02:46:03.742Z,66.83
2023-05-14T02:47:06.246Z,66.88
2023-05-14T02:48:08.738Z,66.64
2023-05-14T02:49:11.594Z,66.73
2023-05-14T02:50:13.836Z,67.24
2023-05-14T02:51:16.681Z,67.56
2023-05-14T02:52:19.136Z,67.23
2023-05-14T02:53:21.402Z,67.34
2023-05-14T02:54:23.840Z,67.38
2023-05-14T02:55:26.524Z,67.55
2023-05-14T02:56:28.766Z,68.04
2023-05-14T02:57:31.182Z,68.49
2023-05-14T02:58:34.037Z,68.81
2023-05-14T02:59:36.681Z,68.47
2023-05-14T03:00:39.274Z,68.07
2023-05-14T03:01:42.562Z,68.22
2023-05-14T03:02:45.543Z,68.41
2023-05-14T03:03:49.366Z,68.72
2023-05-14T03:04:52.156Z,69.28
2023-05-14T03:05:54.420Z,69.58
2023-05-14T03:06:57.010Z,70.32
2023-05-14T03:07:59.267Z,71.24
2023-05-14T03:09:01.685Z,71.82
2023-05-14T03:10:07.271Z,71.91
2023-05-14T03:11:09.466Z,71.46
2023-05-14T03:12:12.897Z,71.13
2023-05-14T03:13:17.896Z,70.84
2023-05-14T03:14:20.155Z,70.48
2023-05-14T03:15:22.723Z,70.26
2023-05-14T03:16:25.570Z,69.74
2023-05-14T03:17:27.807Z,69.34
2023-05-14T03:18:30.853Z,69.31
2023-05-14T03:19:33.479Z,69.42
2023-05-14T03:20:35.949Z,69.88
2023-05-14T03:21:38.364Z,70.15
2023-05-14T03:22:40.960Z,69.98
2023-05-14T03:23:43.304Z,70.49
2023-05-14T03:24:46.441Z,70.84
2023-05-14T03:25:48.823Z,71.52
2023-05-14T03:26:51.258Z,71.26
2023-05-14T03:27:53.673Z,71.33
2023-05-14T03:28:55.972Z,70.80
2023-05-14T03:29:58.502Z,70.05
2023-05-14T03:31:01.272Z,69.53
2023-05-14T03:32:03.717Z,70.27
2023-05-14T03:33:06.280Z,70.06
2023-05-14T03:34:11.677Z,70.46
2023-05-14T03:35:14.076Z,70.29
2023-05-14T03:36:16.263Z,70.06
2023-05-14T03:37:18.689Z,69.58
2023-05-14T03:38:20.934Z,69.16
2023-05-14T03:39:25.874Z,68.87
2023-05-14T03:40:28.239Z,68.99
2023-05-14T03:41:30.452Z,69.63
2023-05-14T03:42:33.858Z,69.33
2023-05-14T03:43:36.141Z,68.95
2023-05-14T03:44:38.437Z,69.12
2023-05-14T03:45:41.112Z,69.22
2023-05-14T03:46:43.295Z,68.92
2023-05-14T03:47:45.774Z,68.58
2023-05-14T03:48:48.148Z,68.96
2023-05-14T03:49:50.663Z,68.92
2023-05-14T03:50:53.288Z,68.32
2023-05-14T03:51:55.525Z,67.94
2023-05-14T03:52:57.700Z,68.10
2023-05-14T03:54:00.048Z,67.98
2023-05-14T03:55:03.701Z,67.99
2023-05-14T03:56:06.415Z,68.85
2023-05-14T03:57:08.635Z,69.35
2023-05-14T03:58:14.433Z,69.54
2023-05-14T03:59:17.289Z,69.82
2023-05-14T04:00:19.852Z,69.92
2023-05-14T04:01:22.184Z,70.18
2023-05-14T04:02:24.447Z,70.08
2023-05-14T04:03:26.753Z,70.09
2023-05-14T04:04:29.121Z,70.54
2023-05-14T04:05:31.749Z,70.89
2023-05-14T04:06:34.167Z,70.52
2023-05-14T04:07:37.509Z,69.82
2023-05-14T04:08:39.750Z,70.10
2023-05-14T04:09:41.946Z,70.30
2023-05-14T04:10:44.594Z,70.54
2023-05-14T04:11:46.849Z,70.12
2023-05-14T04:12:49.056Z,70.54
2023-05-14T04:13:51.521Z,70.50
2023-05-14T04:14:53.990Z,70.95
2023-05-14T04:15:56.342Z,70.86
2023-05-14T04:17:00.337Z,71.03
2023-05-14T04:18:02.802Z,70.73
2023-05-14T04:19:06.055Z,70.38
2023-05-14T04:20:09.144Z,69.81
2023-05-14T04:21:11.552Z,69.18
2023-05-14T04:22:13.803Z,69.16
2023-05-14T04:23:16.266Z,69.26
2023-05-14T04:24:18.471Z,68.83
2023-05-14T04:25:20.980Z,68.70
2023-05-14T04:26:23.518Z,68.21
2023-05-14T04:27:25.784Z,67.71
2023-05-14T04:28:28.171Z,67.68
2023-05-14T04:29:30.551Z,67.53
2023-05-14T04:30:32.976Z,67.16
2023-05-14T04:31:35.503Z,66.93
2023-05-14T04:32:38.173Z,67.04
2023-05-14T04:33:40.709Z,67.04
2023-05-14T04:34:43.428Z,66.98
2023-05-14T04:35:46.023Z,66.44
2023-05-14T04:36:48.600Z,66.99
2023-05-14T04:37:50.818Z,66.81
2023-05-14T04:38:53.040Z,66.28
2023-05-14T04:39:55.478Z,66.40
2023-05-14T04:40:58.360Z,66.97
2023-05-14T04:42:01.126Z,67.60
2023-05-14T04:43:03.322Z,67.09
2023-05-14T04:44:05.759Z,66.89
2023-05-14T04:45:08.852Z,66.98
2023-05-14T04:46:11.819Z,67.18
2023-05-14T04:47:14.363Z,66.73
2023-05-14T04:48:17.079Z,66.51
2023-05-14T04:49:19.271Z,66.12
2023-05-14T04:50:22.038Z,66.68
2023-05-14T04:51:24.820Z,67.07
2023-05-14T04:52:27.076Z,67.18
2023-05-14T04:53:29.516Z,66.98
2023-05-14T04:54:31.841Z,66.45
2023-05-14T04:55:34.104Z,66.16
2023-05-14T04:56:36.717Z,65.67
2023-05-14T04:57:38.921Z,65.23
2023-05-14T04:58:41.132Z,65.78
2023-05-14T04:59:43.556Z,65.48
2023-05-14T05:00:45.808Z,65.32
2023-05-14T05:01:48.245Z,65.07
2023-05-14T05:02:50.806Z,65.84
2023-05-14T05:03:53.125Z,65.58
2023-05-14T05:04:55.380Z,65.65
2023-05-14T05:05:57.952Z,65.50
2023-05-14T05:07:00.338Z,64.63
2023-05-14T05:08:02.627Z,64.26
2023-05-14T05:09:04.816Z,64.13
2023-05-14T05:10:07.836Z,64.38
2023-05-14T05:11:19.681Z,63.73
2023-05-14T05:12:23.103Z,63.73
2023-05-14T05:13:25.263Z,64.26
2023-05-14T05:14:27.685Z,64.49
2023-05-14T05:15:29.861Z,64.30
2023-05-14T05:16:32.322Z,65.49
2023-05-14T05:17:34.733Z,65.61
2023-05-14T05:18:39.082Z,65.19
2023-05-14T05:19:44.085Z,64.98
2023-05-14T05:20:46.953Z,64.40
2023-05-14T05:21:49.592Z,63.27
2023-05-14T05:22:52.251Z,63.75
2023-05-14T05:23:54.675Z,63.73
2023-05-14T05:24:56.973Z,63.56
2023-05-14T05:25:59.151Z,63.82
2023-05-14T05:27:01.772Z,64.79
2023-05-14T05:28:04.136Z,65.03
2023-05-14T05:29:06.494Z,65.38
2023-05-14T05:30:09.098Z,65.23
2023-05-14T05:31:11.562Z,64.66
2023-05-14T05:32:13.793Z,63.88
2023-05-14T05:33:16.248Z,64.44
2023-05-14T05:34:19.467Z,64.95
2023-05-14T05:35:21.813Z,64.31
2023-05-14T05:36:24.204Z,64.20
2023-05-14T05:37:26.786Z,63.98
2023-05-14T05:38:29.006Z,64.01
2023-05-14T05:39:34.884Z,64.35
2023-05-14T05:40:37.696Z,63.73
2023-05-14T05:41:40.688Z,63.36
2023-05-14T05:42:43.342Z,63.14
2023-05-14T05:43:45.545Z,62.16
2023-05-14T05:44:47.763Z,61.98
2023-05-14T05:45:50.182Z,61.50
2023-05-14T05:46:52.528Z,61.03
2023-05-14T05:47:54.946Z,60.67
2023-05-14T05:48:57.173Z,59.63
2023-05-14T05:50:00.192Z,59.54
2023-05-14T05:51:02.658Z,58.49
2023-05-14T05:52:05.262Z,58.86
2023-05-14T05:53:07.702Z,59.21
2023-05-14T05:54:09.908Z,59.57
2023-05-14T05:55:12.138Z,59.38
2023-05-14T05:56:14.328Z,59.15
2023-05-14T05:57:16.803Z,58.92
2023-05-14T05:58:19.637Z,58.39
2023-05-14T05:59:21.846Z,58.06
2023-05-14T06:00:24.803Z,58.23
2023-05-14T06:01:27.881Z,58.31
2023-05-14T06:02:30.486Z,58.60
2023-05-14T06:03:32.856Z,57.92
2023-05-14T06:04:35.323Z,57.55
2023-05-14T06:05:37.660Z,56.62
2023-05-14T06:06:40.102Z,56.85
2023-05-14T06:07:42.797Z,57.06
2023-05-14T06:08:44.974Z,57.73
2023-05-14T06:09:47.376Z,57.58
2023-05-14T06:10:49.801Z,57.91
2023-05-14T06:11:51.974Z,58.38
2023-05-14T06:12:54.848Z,58.30
2023-05-14T06:13:57.346Z,57.78
2023-05-14T06:14:59.512Z,57.74
2023-05-14T06:16:01.776Z,57.69
2023-05-14T06:17:04.319Z,57.25
2023-05-14T06:18:06.811Z,56.93
2023-05-14T06:19:09.166Z,56.79
2023-05-14T06:20:11.806Z,56.16
2023-05-14T06:21:13.997Z,55.39
2023-05-14T06:22:17.236Z,54.83
2023-05-14T06:23:19.472Z,54.46
2023-05-14T06:24:21.659Z,56.48
2023-05-14T06:25:24.078Z,57.21
2023-05-14T06:26:26.425Z,56.32
2023-05-14T06:27:28.708Z,57.29
2023-05-14T06:28:31.332Z,56.88
2023-05-14T06:29:33.580Z,56.43
2023-05-14T06:30:35.831Z,57.10
2023-05-14T06:31:38.305Z,56.76
2023-05-14T06:32:40.626Z,56.70
2023-05-14T06:33:43.054Z,56.76
2023-05-14T06:34:45.407Z,56.32
2023-05-14T06:35:47.613Z,55.91
2023-05-14T06:36:49.834Z,56.06
2023-05-14T06:37:52.077Z,55.66
2023-05-14T06:38:54.624Z,55.20
2023-05-14T06:39:57.870Z,54.65
2023-05-14T06:41:00.354Z,54.30
2023-05-14T06:42:02.601Z,52.80
2023-05-14T06:43:06.709Z,53.86
2023-05-14T06:44:09.962Z,54.41
2023-05-14T06:45:12.247Z,53.60
2023-05-14T06:46:14.627Z,53.10
2023-05-14T06:47:16.849Z,52.54
2023-05-14T06:48:20.223Z,53.12
2023-05-14T06:49:22.814Z,52.81
2023-05-14T06:50:25.268Z,52.94
2023-05-14T06:51:27.812Z,51.97
2023-05-14T06:52:29.990Z,51.30
2023-05-14T06:53:32.483Z,51.37
2023-05-14T06:54:34.688Z,50.90
2023-05-14T06:55:36.936Z,50.31
2023-05-14T06:56:39.209Z,50.04
2023-05-14T06:57:41.753Z,49.35
2023-05-14T06:58:44.100Z,49.06
2023-05-14T06:59:46.298Z,48.33
2023-05-14T07:00:48.690Z,47.57
2023-05-14T07:01:50.908Z,46.91
2023-05-14T07:02:53.259Z,45.57
2023-05-14T07:03:55.920Z,44.96
2023-05-14T07:04:58.194Z,45.27
2023-05-14T07:06:02.382Z,45.29
2023-05-14T07:07:05.722Z,45.73
2023-05-14T07:08:07.975Z,46.31
2023-05-14T07:09:11.108Z,46.35
2023-05-14T07:10:13.409Z,46.29
2023-05-14T07:11:15.931Z,45.90
2023-05-14T07:12:18.150Z,45.67
2023-05-14T07:13:20.470Z,44.75
2023-05-14T07:14:22.852Z,45.41
2023-05-14T07:15:25.042Z,45.13
2023-05-14T07:16:27.368Z,44.98
2023-05-14T07:17:29.708Z,44.79
2023-05-14T07:18:32.157Z,44.50
2023-05-14T07:19:34.640Z,44.27
2023-05-14T07:20:36.803Z,44.00
2023-05-14T07:21:38.990Z,44.08
2023-05-14T07:22:41.429Z,43.63
2023-05-14T07:23:43.629Z,42.79
2023-05-14T07:24:46.077Z,42.65
2023-05-14T07:25:48.284Z,42.17
2023-05-14T07:26:50.794Z,41.61
2023-05-14T07:27:52.995Z,41.12
2023-05-14T07:28:55.678Z,40.14
2023-05-14T07:29:58.068Z,38.94
2023-05-14T07:31:00.943Z,38.38
2023-05-14T07:32:03.593Z,37.62
2023-05-14T07:33:05.900Z,37.20
2023-05-14T07:34:09.337Z,36.87
2023-05-14T07:35:11.861Z,37.04
2023-05-14T07:36:14.105Z,36.19
2023-05-14T07:37:16.726Z,36.68
2023-05-14T07:38:19.631Z,36.17
2023-05-14T07:39:22.266Z,35.77
2023-05-14T07:40:27.457Z,34.91
2023-05-14T07:41:29.728Z,36.20
2023-05-14T07:42:36.497Z,36.74
2023-05-14T07:43:40.589Z,37.01
2023-05-14T07:44:43.019Z,35.94
2023-05-14T07:45:45.587Z,35.09
2023-05-14T07:46:48.006Z,34.89
2023-05-14T07:47:52.052Z,34.80
2023-05-14T07:48:54.728Z,34.65
2023-05-14T07:49:57.700Z,34.34
2023-05-14T07:51:00.169Z,33.84
2023-05-14T07:52:02.812Z,33.21
2023-05-14T07:53:04.994Z,33.07
2023-05-14T07:54:07.481Z,32.71
2023-05-14T07:55:10.410Z,32.82
2023-05-14T07:56:12.655Z,33.32
2023-05-14T07:57:14.842Z,33.00
2023-05-14T07:58:16.999Z,32.73
2023-05-14T07:59:19.394Z,33.50
2023-05-14T08:00:22.483Z,33.34
2023-05-14T08:01:25.169Z,32.48
2023-05-14T08:02:28.173Z,32.88
2023-05-14T08:03:30.734Z,32.85
2023-05-14T08:04:33.188Z,32.92
2023-05-14T08:05:35.603Z,33.63
2023-05-14T08:06:38.058Z,34.37
2023-05-14T08:07:40.349Z,34.29
2023-05-14T08:08:42.744Z,32.82
2023-05-14T08:09:45.112Z,32.36
2023-05-14T08:10:47.328Z,32.38
2023-05-14T08:11:49.726Z,31.92
2023-05-14T08:12:51.914Z,31.26
2023-05-14T08:13:54.143Z,31.07
2023-05-14T08:14:56.572Z,31.10
2023-05-14T08:15:58.904Z,31.12
2023-05-14T08:17:01.348Z,31.77
2023-05-14T08:18:03.873Z,33.11
2023-05-14T08:19:06.434Z,33.69
2023-05-14T08:20:10.029Z,33.56
2023-05-14T08:21:12.230Z,33.34
2023-05-14T08:22:14.619Z,32.59
2023-05-14T08:23:16.790Z,31.78
2023-05-14T08:24:19.236Z,32.28
2023-05-14T08:25:21.621Z,33.20
2023-05-14T08:26:23.920Z,32.81
2023-05-14T08:27:27.968Z,32.52
2023-05-14T08:28:30.343Z,32.47
2023-05-14T08:29:32.659Z,33.08
2023-05-14T08:30:35.110Z,32.22
2023-05-14T08:31:37.475Z,33.95
2023-05-14T08:32:39.708Z,34.67
2023-05-14T08:33:42.010Z,34.30
2023-05-14T08:34:44.222Z,33.90
2023-05-14T08:35:46.623Z,32.93
2023-05-14T08:36:50.964Z,31.39
2023-05-14T08:37:53.226Z,31.81
2023-05-14T08:38:55.423Z,32.16
2023-05-14T08:39:57.617Z,31.97
2023-05-14T08:41:00.554Z,32.12
2023-05-14T08:42:06.680Z,32.16
2023-05-14T08:43:10.865Z,32.58
2023-05-14T08:44:16.908Z,31.75
2023-05-14T08:45:21.304Z,30.98
2023-05-14T08:46:25.249Z,30.99
2023-05-14T08:47:30.344Z,30.02
2023-05-14T08:48:34.524Z,30.75
2023-05-14T08:49:42.670Z,30.12
2023-05-14T08:50:45.513Z,30.21
2023-05-14T08:51:48.593Z,29.70
2023-05-14T08:52:51.649Z,29.43
2023-05-14T08:53:54.065Z,30.57
2023-05-14T08:54:57.301Z,31.12
2023-05-14T08:56:05.008Z,31.37
2023-05-14T08:57:10.715Z,31.02
2023-05-14T08:58:13.133Z,30.34
2023-05-14T08:59:15.662Z,30.30
2023-05-14T09:00:18.693Z,31.21
2023-05-14T09:01:22.097Z,31.28
2023-05-14T09:02:28.423Z,32.01
2023-05-14T09:03:31.307Z,30.93
2023-05-14T09:04:34.935Z,30.90
2023-05-14T09:05:37.476Z,30.67
2023-05-14T09:06:42.111Z,30.36
2023-05-14T09:07:45.146Z,30.76
2023-05-14T09:08:47.850Z,29.83
2023-05-14T09:09:51.561Z,30.76
2023-05-14T09:10:53.768Z,29.95
2023-05-14T09:11:56.126Z,30.50
2023-05-14T09:12:58.645Z,30.26
2023-05-14T09:14:00.834Z,30.49
2023-05-14T09:15:03.436Z,30.49
2023-05-14T09:16:06.184Z,30.50
2023-05-14T09:17:08.873Z,30.65
2023-05-14T09:18:11.326Z,29.94
2023-05-14T09:19:15.602Z,29.91
2023-05-14T09:20:18.706Z,29.48
2023-05-14T09:21:21.429Z,29.97
2023-05-14T09:22:23.718Z,30.11
2023-05-14T09:23:27.160Z,30.67
2023-05-14T09:24:29.608Z,30.72
2023-05-14T09:25:32.391Z,31.14
2023-05-14T09:26:35.842Z,30.92
2023-05-14T09:27:38.672Z,30.83
2023-05-14T09:28:44.414Z,30.63
2023-05-14T09:29:47.841Z,29.01
2023-05-14T09:30:52.160Z,29.88
2023-05-14T09:31:55.770Z,29.47
2023-05-14T09:32:58.036Z,29.29
2023-05-14T09:34:00.650Z,31.24
2023-05-14T09:35:18.282Z,31.03
2023-05-14T09:36:20.825Z,31.99
2023-05-14T09:37:26.102Z,31.38
2023-05-14T09:38:32.253Z,30.95
2023-05-14T09:39:38.685Z,30.18
2023-05-14T09:40:41.607Z,30.09
2023-05-14T09:41:43.960Z,29.92
2023-05-14T09:42:46.819Z,28.75
2023-05-14T09:43:50.494Z,28.80
2023-05-14T09:44:53.773Z,29.45
2023-05-14T09:45:56.027Z,29.63
2023-05-14T09:46:58.474Z,29.89
2023-05-14T09:48:01.839Z,29.57
2023-05-14T09:49:04.337Z,29.46
2023-05-14T09:50:07.411Z,29.59
2023-05-14T09:51:10.350Z,28.86
2023-05-14T09:52:12.754Z,28.13
2023-05-14T09:53:15.148Z,28.16
2023-05-14T09:54:17.656Z,28.15
2023-05-14T09:55:20.724Z,28.69
2023-05-14T09:56:23.591Z,29.32
2023-05-14T09:57:27.092Z,29.24
2023-05-14T09:58:29.727Z,29.02
2023-05-14T09:59:31.880Z,29.60
2023-05-14T10:00:34.642Z,30.56
2023-05-14T10:01:38.313Z,30.92
2023-05-14T10:02:43.041Z,31.48
2023-05-14T10:03:45.669Z,30.79
2023-05-14T10:04:49.764Z,30.48
2023-05-14T10:05:53.380Z,30.42
2023-05-14T10:06:56.912Z,30.40
2023-05-14T10:08:03.249Z,30.03
2023-05-14T10:09:13.463Z,29.95
2023-05-14T10:10:18.681Z,29.51
2023-05-14T10:11:27.403Z,28.65
2023-05-14T10:12:37.073Z,29.01
2023-05-14T10:13:42.152Z,29.35
2023-05-14T10:14:53.361Z,29.42
2023-05-14T10:16:06.299Z,29.18
2023-05-14T10:17:18.527Z,28.89
2023-05-14T10:18:23.569Z,29.09
2023-05-14T10:19:26.691Z,29.31
2023-05-14T10:20:30.638Z,29.63
2023-05-14T10:21:36.097Z,29.88
2023-05-14T10:22:39.048Z,30.26
2023-05-14T10:23:42.495Z,30.43
2023-05-14T10:24:46.073Z,30.51
2023-05-14T10:25:49.031Z,30.20
2023-05-14T10:26:52.233Z,29.98
2023-05-14T10:27:55.424Z,30.27
2023-05-14T10:28:58.536Z,30.99
2023-05-14T10:30:00.732Z,30.97
2023-05-14T10:31:03.765Z,30.43
2023-05-14T10:32:07.584Z,30.73
2023-05-14T10:33:13.880Z,30.13
2023-05-14T10:34:38.268Z,29.74
2023-05-14T10:36:06.905Z,30.44
2023-05-14T10:37:14.953Z,30.16
2023-05-14T10:38:17.335Z,30.68
2023-05-14T10:39:19.543Z,30.46
2023-05-14T10:40:24.667Z,30.23
2023-05-14T10:41:27.219Z,29.79
2023-05-14T10:42:40.664Z,29.71
2023-05-14T10:43:44.426Z,29.40
2023-05-14T10:44:52.721Z,30.07
2023-05-14T10:45:55.981Z,30.19
2023-05-14T10:46:58.956Z,29.93
2023-05-14T10:48:01.881Z,30.07
2023-05-14T10:49:04.371Z,29.23
2023-05-14T10:50:08.634Z,29.96
2023-05-14T10:51:11.850Z,30.17
2023-05-14T10:52:17.359Z,29.80
2023-05-14T10:53:20.039Z,29.11
2023-05-14T10:54:23.488Z,28.94
2023-05-14T10:55:25.985Z,29.23
2023-05-14T10:56:29.085Z,28.97
2023-05-14T10:57:38.101Z,28.38
2023-05-14T10:58:45.108Z,28.70
2023-05-14T10:59:56.026Z,29.90
2023-05-14T11:00:59.281Z,29.30
2023-05-14T11:02:05.604Z,28.73
2023-05-14T11:03:08.093Z,28.67
2023-05-14T11:04:18.686Z,29.41
2023-05-14T11:05:20.976Z,30.19
2023-05-14T11:06:23.152Z,29.90
2023-05-14T11:07:29.784Z,29.81
2023-05-14T11:08:32.668Z,30.01
2023-05-14T11:09:35.233Z,29.97
2023-05-14T11:10:39.259Z,30.34
2023-05-14T11:11:41.642Z,29.76
2023-05-14T11:12:46.300Z,30.19
2023-05-14T11:13:49.913Z,31.09
2023-05-14T11:14:52.121Z,30.88
2023-05-14T11:15:55.754Z,30.87
2023-05-14T11:16:58.131Z,30.42
2023-05-14T11:18:00.511Z,30.76
2023-05-14T11:19:04.839Z,30.43
2023-05-14T11:20:08.839Z,30.92
2023-05-14T11:21:11.089Z,31.33
2023-05-14T11:22:16.328Z,30.87
2023-05-14T11:23:18.552Z,30.89
2023-05-14T11:24:21.331Z,30.16
2023-05-14T11:25:25.702Z,30.18
2023-05-14T11:26:28.157Z,30.74
2023-05-14T11:27:31.368Z,30.59
2023-05-14T11:28:34.514Z,30.37
2023-05-14T11:29:44.701Z,31.32
2023-05-14T11:30:47.104Z,31.51
2023-05-14T11:31:50.635Z,31.21
2023-05-14T11:32:54.292Z,31.49
2023-05-14T11:33:57.004Z,31.07
2023-05-14T11:34:59.441Z,31.01
2023-05-14T11:36:01.797Z,30.03
2023-05-14T11:37:07.930Z,30.87
2023-05-14T11:38:17.384Z,30.96
2023-05-14T11:39:19.706Z,30.82
2023-05-14T11:40:22.352Z,31.73
2023-05-14T11:41:26.267Z,31.71
2023-05-14T11:42:28.489Z,31.16
2023-05-14T11:43:30.925Z,31.46
2023-05-14T11:44:33.362Z,31.95
2023-05-14T11:46:39.239Z,31.54
2023-05-14T11:47:42.817Z,31.34
2023-05-14T11:48:45.750Z,30.61
2023-05-14T11:50:52.086Z,31.77
2023-05-14T11:52:02.244Z,31.73
2023-05-14T11:53:04.440Z,31.55
2023-05-14T11:54:06.658Z,31.24
2023-05-14T11:55:13.203Z,31.54
2023-05-14T11:56:15.962Z,31.43
2023-05-14T11:57:22.615Z,31.23
2023-05-14T11:58:25.362Z,31.33
2023-05-14T11:59:28.859Z,31.55
2023-05-14T12:00:34.096Z,31.46
2023-05-14T12:01:39.575Z,30.80
2023-05-14T12:02:41.912Z,30.58
2023-05-14T12:04:00.406Z,30.45
2023-05-14T12:05:02.733Z,30.28
2023-05-14T12:06:07.589Z,29.84
2023-05-14T12:07:12.579Z,30.19
2023-05-14T12:08:28.331Z,30.08
2023-05-14T12:09:37.693Z,30.45
2023-05-14T12:10:42.950Z,30.62
2023-05-14T12:11:46.534Z,30.47
2023-05-14T12:12:49.175Z,29.75
2023-05-14T12:13:52.966Z,30.09
2023-05-14T12:14:55.340Z,30.07
2023-05-14T12:15:59.838Z,30.01
2023-05-14T12:17:02.024Z,30.34
2023-05-14T12:18:22.940Z,30.37
2023-05-14T12:19:25.958Z,30.25
2023-05-14T12:20:29.997Z,30.50
2023-05-14T12:21:32.412Z,30.99
2023-05-14T12:22:36.388Z,31.09
2023-05-14T12:23:39.719Z,31.13
2023-05-14T12:24:43.728Z,31.11
2023-05-14T12:25:52.946Z,31.75
2023-05-14T12:26:55.554Z,31.97
2023-05-14T12:27:57.921Z,32.48
2023-05-14T12:29:01.256Z,32.45
2023-05-14T12:31:10.860Z,33.05
2023-05-14T12:32:13.074Z,33.13
2023-05-14T12:33:16.352Z,33.09
2023-05-14T12:34:18.654Z,32.89
2023-05-14T12:35:22.624Z,33.15
2023-05-14T12:36:25.777Z,32.54
2023-05-14T12:37:30.060Z,32.59
2023-05-14T12:38:33.566Z,32.84
2023-05-14T12:39:35.845Z,32.78
2023-05-14T12:40:38.129Z,32.94
2023-05-14T12:41:40.915Z,32.92
2023-05-14T12:42:43.116Z,32.76
2023-05-14T12:43:48.688Z,32.40
2023-05-14T12:44:50.953Z,32.61
2023-05-14T12:45:53.142Z,32.61
2023-05-14T12:46:55.506Z,32.72
2023-05-14T12:47:59.547Z,32.81
2023-05-14T12:49:01.837Z,32.32
2023-05-14T12:50:05.098Z,32.25
2023-05-14T12:51:07.359Z,32.60
2023-05-14T12:52:22.824Z,32.46
2023-05-14T12:53:31.920Z,33.12
2023-05-14T12:54:34.117Z,33.60
2023-05-14T12:55:36.354Z,33.63
2023-05-14T12:56:39.335Z,33.35
2023-05-14T12:57:41.809Z,33.63
2023-05-14T12:58:44.128Z,33.55
2023-05-14T12:59:46.308Z,33.28
2023-05-14T13:00:48.591Z,32.72
2023-05-14T13:01:50.839Z,32.91
2023-05-14T13:02:53.051Z,32.93
2023-05-14T13:03:55.618Z,33.42
2023-05-14T13:04:57.920Z,33.13
2023-05-14T13:06:00.474Z,33.40
2023-05-14T13:07:03.480Z,33.47
2023-05-14T13:08:05.708Z,33.58
2023-05-14T13:09:08.716Z,33.39
2023-05-14T13:10:11.591Z,33.26
2023-05-14T13:11:14.099Z,32.93
2023-05-14T13:12:16.345Z,33.23
2023-05-14T13:13:18.497Z,33.33
2023-05-14T13:14:20.699Z,33.49
2023-05-14T13:15:23.256Z,33.69
2023-05-14T13:16:27.389Z,33.31
2023-05-14T13:17:30.522Z,33.33
2023-05-14T13:18:32.817Z,33.53
2023-05-14T13:19:35.255Z,33.42
2023-05-14T13:20:43.113Z,33.42
2023-05-14T13:21:45.525Z,33.83
2023-05-14T13:22:47.909Z,33.46
2023-05-14T13:23:50.133Z,33.87
2023-05-14T13:24:52.323Z,33.55
2023-05-14T13:25:54.512Z,33.75
2023-05-14T13:26:56.910Z,33.94
2023-05-14T13:28:00.157Z,33.50
2023-05-14T13:29:02.458Z,33.82
2023-05-14T13:30:04.947Z,33.63
2023-05-14T13:31:12.294Z,33.56
2023-05-14T13:32:14.652Z,33.86
2023-05-14T13:33:16.817Z,33.71
2023-05-14T13:34:19.217Z,34.50
2023-05-14T13:35:21.568Z,34.47
2023-05-14T13:36:23.945Z,34.73
2023-05-14T13:37:26.588Z,34.50
2023-05-14T13:38:29.012Z,35.09
2023-05-14T13:39:31.207Z,35.65
2023-05-14T13:40:33.856Z,35.61